Time;durP1;ratioP1;P1;durP2;ratioP2;P2;SDS_P1;SDS_P2;PMS_P1;PMS_P2;Temp;Humidity;BMP_temperature;BMP_pressure;BME280_temperature;BME280_humidity;BME280_pressure;Samples;Min_cycle;Max_cycle;Signal;HPM_P1;HPM_P2
2022/12/01 00:01:00;;;;;;;32.45;19.15;;;;;;;;;;5015411;28;20054;-66
2022/12/01 00:03:29;;;;;;;36.63;20.25;;;;;;;;;;5015495;28;20100;-67
2022/12/01 00:06:03;;;;;;;33.35;19.60;;;;;;;;;;5014522;28;20085;-67
2022/12/01 00:08:30;;;;;;;34.00;18.42;;;;;;;;;;5014824;28;20092;-66
2022/12/01 00:11:10;;;;;;;34.15;19.20;;;;;;;;;;5015222;28;20050;-67
2022/12/01 00:13:37;;;;;;;34.47;18.50;;;;;;;;;;5015242;28;20050;-65
2022/12/01 00:16:11;;;;;;;32.33;18.58;;;;;;;;;;5016456;28;20449;-66
2022/12/01 00:18:37;;;;;;;35.38;19.15;;;;;;;;;;5034430;28;20136;-66
2022/12/01 00:21:04;;;;;;;36.80;18.98;;;;;;;;;;5034957;28;20120;-67
2022/12/01 00:23:31;;;;;;;29.52;16.90;;;;;;;;;;5034823;28;20527;-65
2022/12/01 00:26:04;;;;;;;28.33;16.30;;;;;;;;;;5034747;28;20049;-66
2022/12/01 00:28:31;;;;;;;31.95;18.33;;;;;;;;;;5014385;28;20527;-65
2022/12/01 00:30:58;;;;;;;33.33;19.42;;;;;;;;;;5014905;28;20053;-65
2022/12/01 00:33:25;;;;;;;29.73;17.55;;;;;;;;;;5015626;28;20046;-66
2022/12/01 00:36:01;;;;;;;30.48;17.20;;;;;;;;;;5015120;28;20471;-67
2022/12/01 00:38:27;;;;;;;28.95;18.02;;;;;;;;;;5014536;28;20108;-67
2022/12/01 00:40:54;;;;;;;29.42;17.23;;;;;;;;;;5013597;28;20551;-67
2022/12/01 00:43:20;;;;;;;32.13;18.17;;;;;;;;;;5013557;28;20156;-66
2022/12/01 00:45:47;;;;;;;30.65;17.10;;;;;;;;;;5014783;28;20076;-66
2022/12/01 00:48:14;;;;;;;30.50;17.73;;;;;;;;;;5032131;28;20053;-66
2022/12/01 00:50:40;;;;;;;29.85;16.95;;;;;;;;;;5034008;28;20088;-67
2022/12/01 00:53:07;;;;;;;29.13;17.55;;;;;;;;;;5034604;28;20128;-64
2022/12/01 00:55:34;;;;;;;33.72;18.55;;;;;;;;;;5034449;28;20077;-66
2022/12/01 00:58:00;;;;;;;31.90;18.10;;;;;;;;;;5033431;28;20137;-66
2022/12/01 01:00:27;;;;;;;31.40;17.15;;;;;;;;;;5034058;28;20085;-67
2022/12/01 01:02:54;;;;;;;32.22;18.40;;;;;;;;;;5034300;28;20076;-66
2022/12/01 01:05:20;;;;;;;29.02;16.70;;;;;;;;;;5034166;28;20176;-66
2022/12/01 01:07:47;;;;;;;32.72;18.20;;;;;;;;;;5019993;28;20124;-67
2022/12/01 01:10:13;;;;;;;27.45;17.58;;;;;;;;;;5014233;28;20049;-65
2022/12/01 01:12:40;;;;;;;29.45;17.70;;;;;;;;;;5014260;28;20417;-67
2022/12/01 01:15:07;;;;;;;30.80;18.15;;;;;;;;;;5014112;28;20041;-66
2022/12/01 01:17:34;;;;;;;31.70;18.40;;;;;;;;;;5024716;28;20136;-66
2022/12/01 01:20:00;;;;;;;31.52;17.02;;;;;;;;;;5031979;28;20132;-66
2022/12/01 01:22:27;;;;;;;29.70;17.52;;;;;;;;;;5034019;28;20078;-66
2022/12/01 01:24:53;;;;;;;28.35;16.77;;;;;;;;;;5033954;28;20068;-67
2022/12/01 01:27:20;;;;;;;31.02;17.38;;;;;;;;;;5023592;28;20050;-65
2022/12/01 01:29:46;;;;;;;31.63;17.05;;;;;;;;;;5013351;28;20119;-66
2022/12/01 01:32:13;;;;;;;29.67;16.92;;;;;;;;;;5013597;28;20559;-66
2022/12/01 01:34:40;;;;;;;30.38;17.23;;;;;;;;;;5017203;28;20128;-64
2022/12/01 01:37:06;;;;;;;29.30;17.55;;;;;;;;;;5033733;28;20131;-66
2022/12/01 01:39:33;;;;;;;28.75;17.40;;;;;;;;;;5033006;28;20049;-67
2022/12/01 01:42:00;;;;;;;31.30;17.25;;;;;;;;;;5033501;28;20141;-66
2022/12/01 01:44:44;;;;;;;28.15;17.00;;;;;;;;;;5033378;28;20108;-64
2022/12/01 01:47:11;;;;;;;26.73;16.17;;;;;;;;;;5033196;28;20072;-65
2022/12/01 01:49:38;;;;;;;27.70;16.63;;;;;;;;;;5032943;28;20085;-66
2022/12/01 01:52:04;;;;;;;25.88;16.02;;;;;;;;;;5031966;28;20084;-65
2022/12/01 01:54:40;;;;;;;27.08;16.17;;;;;;;;;;5032681;28;20472;-65
2022/12/01 01:57:07;;;;;;;27.80;16.20;;;;;;;;;;5031902;28;20168;-66
2022/12/01 01:59:42;;;;;;;24.00;15.30;;;;;;;;;;5032465;28;20107;-67
2022/12/01 02:02:10;;;;;;;24.17;14.90;;;;;;;;;;5032105;28;20072;-66
2022/12/01 02:04:44;;;;;;;25.23;14.93;;;;;;;;;;5031971;28;20053;-66
2022/12/01 02:07:11;;;;;;;28.38;16.17;;;;;;;;;;5016104;28;20088;-66
2022/12/01 02:09:38;;;;;;;24.25;14.32;;;;;;;;;;5031212;28;20076;-66
2022/12/01 02:12:18;;;;;;;24.33;14.50;;;;;;;;;;5032663;28;20095;-67
2022/12/01 02:15:01;;;;;;;24.80;14.68;;;;;;;;;;5016441;28;20088;-67
2022/12/01 02:17:42;;;;;;;29.13;15.15;;;;;;;;;;5021853;28;20096;-65
2022/12/01 02:20:46;;;;;;;32.47;16.90;;;;;;;;;;5012372;28;20074;-66
2022/12/01 02:24:04;;;;;;;25.92;16.10;;;;;;;;;;5013130;28;20088;-66
2022/12/01 02:26:50;;;;;;;27.40;14.75;;;;;;;;;;4989641;28;20132;-67
2022/12/01 02:29:41;;;;;;;24.85;14.52;;;;;;;;;;5030705;28;20088;-66
2022/12/01 02:32:26;;;;;;;26.80;15.27;;;;;;;;;;5032359;28;20299;-65
2022/12/01 02:34:57;;;;;;;28.05;15.25;;;;;;;;;;5032300;28;20046;-66
2022/12/01 02:37:45;;;;;;;24.83;16.17;;;;;;;;;;5026378;28;20054;-66
2022/12/01 02:40:59;;;;;;;25.85;15.50;;;;;;;;;;5011484;28;20475;-64
2022/12/01 02:43:26;;;;;;;;;;;;;;;;;;5007688;28;20081;-65
2022/12/01 02:46:02;;;;;;;28.27;16.52;;;;;;;;;;5012516;28;20339;-66
2022/12/01 02:48:32;;;;;;;27.63;15.60;;;;;;;;;;4996002;28;20045;-66
2022/12/01 02:51:02;;;;;;;25.73;15.50;;;;;;;;;;4995380;28;20054;-65
2022/12/01 02:53:28;;;;;;;26.58;15.13;;;;;;;;;;4995269;28;20084;-66
2022/12/01 02:55:56;;;;;;;25.33;15.25;;;;;;;;;;5011375;28;20096;-65
2022/12/01 02:58:23;;;;;;;27.08;16.52;;;;;;;;;;5024523;28;20508;-65
2022/12/01 03:00:55;;;;;;;26.38;15.05;;;;;;;;;;5031174;28;20096;-64
2022/12/01 03:03:46;;;;;;;26.65;15.15;;;;;;;;;;5031216;28;20478;-64
2022/12/01 03:06:23;;;;;;;29.17;15.45;;;;;;;;;;5031331;28;20459;-64
2022/12/01 03:08:56;;;;;;;29.65;16.45;;;;;;;;;;5013345;28;20046;-65
2022/12/01 03:11:27;;;;;;;28.25;15.85;;;;;;;;;;4995369;28;20052;-64
2022/12/01 03:14:40;;;;;;;24.02;15.07;;;;;;;;;;4995273;28;20080;-68
2022/12/01 03:17:09;;;;;;;28.70;17.33;;;;;;;;;;4997806;28;20058;-64
2022/12/01 03:19:40;;;;;;;29.58;16.67;;;;;;;;;;4994315;28;20058;-62
2022/12/01 03:22:24;;;;;;;27.35;15.68;;;;;;;;;;5012064;28;20053;-66
2022/12/01 03:24:52;;;;;;;26.42;15.45;;;;;;;;;;5010861;28;20041;-64
2022/12/01 03:27:21;;;;;;;28.60;17.13;;;;;;;;;;5014969;28;20103;-65
2022/12/01 03:29:49;;;;;;;31.23;17.83;;;;;;;;;;5013857;28;20052;-65
2022/12/01 03:32:23;;;;;;;29.52;17.67;;;;;;;;;;5014347;28;20485;-65
2022/12/01 03:35:10;;;;;;;30.05;17.08;;;;;;;;;;5028544;28;20045;-66
2022/12/01 03:37:40;;;;;;;28.92;16.40;;;;;;;;;;5016201;28;20471;-66
2022/12/01 03:40:09;;;;;;;30.55;16.92;;;;;;;;;;5029934;28;20091;-66
2022/12/01 03:42:41;;;;;;;29.02;16.10;;;;;;;;;;5014520;28;20140;-64
2022/12/01 03:45:13;;;;;;;29.00;16.83;;;;;;;;;;5030618;28;20054;-67
2022/12/01 03:47:39;;;;;;;30.20;17.48;;;;;;;;;;5030295;28;20084;-65
2022/12/01 03:50:07;;;;;;;26.05;16.25;;;;;;;;;;5031353;28;20080;-67
2022/12/01 03:53:12;;;;;;;29.08;17.80;;;;;;;;;;5011243;28;20460;-65
2022/12/01 03:55:40;;;;;;;33.17;18.95;;;;;;;;;;4970472;28;20075;-67
2022/12/01 03:58:10;;;;;;;29.77;18.33;;;;;;;;;;4986795;28;20057;-66
2022/12/01 04:00:37;;;;;;;28.55;17.02;;;;;;;;;;5010801;28;20120;-66
2022/12/01 04:03:04;;;;;;;28.02;16.67;;;;;;;;;;5018699;28;20049;-66
2022/12/01 04:05:33;;;;;;;29.17;17.20;;;;;;;;;;5014290;28;20049;-67
2022/12/01 04:07:59;;;;;;;26.85;17.02;;;;;;;;;;5014484;28;20104;-64
2022/12/01 04:10:26;;;;;;;30.92;16.98;;;;;;;;;;5011444;28;20585;-67
2022/12/01 04:12:58;;;;;;;30.98;18.27;;;;;;;;;;5011768;28;20100;-67
2022/12/01 04:15:25;;;;;;;27.95;17.10;;;;;;;;;;5011814;28;20064;-67
2022/12/01 04:17:51;;;;;;;29.90;17.15;;;;;;;;;;5013851;28;20141;-67
2022/12/01 04:20:18;;;;;;;29.13;17.15;;;;;;;;;;5015654;28;20501;-65
2022/12/01 04:22:45;;;;;;;28.25;16.73;;;;;;;;;;5015287;28;20128;-67
2022/12/01 04:25:11;;;;;;;30.45;17.00;;;;;;;;;;5015108;28;20133;-67
2022/12/01 04:27:38;;;;;;;27.52;16.30;;;;;;;;;;5015361;28;20096;-67
2022/12/01 04:30:05;;;;;;;30.38;17.73;;;;;;;;;;5014571;28;20053;-67
2022/12/01 04:32:40;;;;;;;29.45;16.70;;;;;;;;;;5053359;22;20053;-68
2022/12/01 04:35:08;;;;;;;25.67;15.10;;;;;;;;;;5019595;28;20045;-67
2022/12/01 04:37:36;;;;;;;29.75;17.50;;;;;;;;;;5019222;28;20057;-64
2022/12/01 04:40:04;;;;;;;28.60;16.75;;;;;;;;;;5036513;28;20045;-65
2022/12/01 04:42:31;;;;;;;33.50;18.00;;;;;;;;;;5016623;28;20084;-65
2022/12/01 04:45:01;;;;;;;30.33;17.27;;;;;;;;;;5014537;28;20479;-67
2022/12/01 04:47:29;;;;;;;28.92;17.77;;;;;;;;;;5017572;28;20046;-66
2022/12/01 04:49:59;;;;;;;28.70;17.95;;;;;;;;;;5016254;28;20492;-65
2022/12/01 04:52:26;;;;;;;30.48;18.25;;;;;;;;;;4995022;28;20073;-65
2022/12/01 04:55:02;;;;;;;31.88;17.40;;;;;;;;;;4997160;28;20512;-66
2022/12/01 04:57:29;;;;;;;29.15;18.38;;;;;;;;;;4997837;28;20406;-66
2022/12/01 04:59:56;;;;;;;28.08;16.60;;;;;;;;;;4997234;28;20057;-66
2022/12/01 05:02:23;;;;;;;30.85;18.92;;;;;;;;;;5001052;28;20050;-66
2022/12/01 05:04:50;;;;;;;27.10;16.58;;;;;;;;;;5016719;28;20054;-66
2022/12/01 05:07:17;;;;;;;30.13;18.02;;;;;;;;;;4999280;28;20086;-66
2022/12/01 05:09:45;;;;;;;31.52;18.73;;;;;;;;;;5016358;28;20179;-66
2022/12/01 05:12:12;;;;;;;31.42;19.17;;;;;;;;;;5017055;28;20472;-66
2022/12/01 05:14:39;;;;;;;31.02;18.85;;;;;;;;;;5019045;28;20077;-67
2022/12/01 05:17:11;;;;;;;31.27;18.30;;;;;;;;;;5033186;28;20049;-66
2022/12/01 05:22:28;;;;;;;31.10;17.88;;;;;;;;;;5020953;28;20057;-66
2022/12/01 05:25:15;;;;;;;29.02;17.02;;;;;;;;;;5001284;28;20455;-67
2022/12/01 05:27:42;;;;;;;30.75;18.80;;;;;;;;;;5014730;28;20504;-66
2022/12/01 05:30:12;;;;;;;29.15;16.77;;;;;;;;;;5013683;28;20049;-66
2022/12/01 05:32:39;;;;;;;34.65;19.33;;;;;;;;;;5015788;28;20145;-67
2022/12/01 05:35:08;;;;;;;31.42;19.15;;;;;;;;;;5015843;28;20050;-67
2022/12/01 05:37:38;;;;;;;35.63;20.02;;;;;;;;;;5015684;28;20060;-67
2022/12/01 05:40:08;;;;;;;29.25;17.90;;;;;;;;;;4996998;28;20432;-67
2022/12/01 05:42:36;;;;;;;32.67;18.85;;;;;;;;;;5013794;28;20142;-66
2022/12/01 05:45:03;;;;;;;31.27;18.08;;;;;;;;;;5014720;28;20053;-66
2022/12/01 05:47:30;;;;;;;32.95;18.65;;;;;;;;;;5014066;28;20064;-67
2022/12/01 05:49:57;;;;;;;29.70;17.92;;;;;;;;;;5013412;28;20069;-66
2022/12/01 05:52:34;;;;;;;34.33;19.67;;;;;;;;;;5013973;28;20053;-66
2022/12/01 05:55:04;;;;;;;28.48;17.52;;;;;;;;;;4996876;28;20072;-66
2022/12/01 05:57:32;;;;;;;33.30;18.83;;;;;;;;;;5009254;28;20054;-66
2022/12/01 06:00:04;;;;;;;30.77;17.70;;;;;;;;;;4999794;28;20061;-65
2022/12/01 06:02:31;;;;;;;34.20;19.60;;;;;;;;;;5005370;28;20057;-67
2022/12/01 06:05:02;;;;;;;29.65;18.48;;;;;;;;;;5002515;28;20046;-67
2022/12/01 06:07:33;;;;;;;30.13;19.48;;;;;;;;;;4994539;28;20081;-68
2022/12/01 06:10:01;;;;;;;29.90;18.00;;;;;;;;;;4977146;28;20088;-67
2022/12/01 06:12:28;;;;;;;33.08;18.45;;;;;;;;;;4996693;28;20050;-66
2022/12/01 06:14:58;;;;;;;33.33;17.95;;;;;;;;;;5013538;28;20136;-67
2022/12/01 06:17:26;;;;;;;30.17;17.50;;;;;;;;;;5013746;28;20053;-66
2022/12/01 06:19:52;;;;;;;32.63;18.15;;;;;;;;;;5012620;28;20133;-67
2022/12/01 06:22:20;;;;;;;27.38;16.95;;;;;;;;;;5013223;28;20068;-66
2022/12/01 06:24:50;;;;;;;29.27;17.67;;;;;;;;;;4996900;28;20099;-66
2022/12/01 06:27:17;;;;;;;29.98;18.35;;;;;;;;;;5013757;28;20069;-67
2022/12/01 06:29:44;;;;;;;32.45;19.20;;;;;;;;;;5012142;28;20054;-66
2022/12/01 06:32:11;;;;;;;28.95;16.67;;;;;;;;;;5013080;28;20116;-67
2022/12/01 06:34:37;;;;;;;32.28;17.58;;;;;;;;;;5013084;28;20045;-66
2022/12/01 06:37:04;;;;;;;31.40;19.20;;;;;;;;;;5012720;28;20096;-66
2022/12/01 06:39:30;;;;;;;34.15;18.77;;;;;;;;;;5011770;28;20050;-66
2022/12/01 06:41:57;;;;;;;31.63;18.02;;;;;;;;;;5012533;28;20456;-66
2022/12/01 06:44:24;;;;;;;33.70;19.35;;;;;;;;;;5012619;28;20057;-66
2022/12/01 06:46:51;;;;;;;31.48;18.58;;;;;;;;;;5012871;28;20096;-67
2022/12/01 06:49:19;;;;;;;32.95;17.55;;;;;;;;;;5011725;28;20081;-66
2022/12/01 06:51:45;;;;;;;30.38;17.98;;;;;;;;;;5012699;28;20046;-66
2022/12/01 06:54:13;;;;;;;30.70;17.38;;;;;;;;;;5012503;28;20073;-65
2022/12/01 06:56:41;;;;;;;30.95;17.58;;;;;;;;;;5012409;28;20149;-66
2022/12/01 06:59:08;;;;;;;28.23;17.77;;;;;;;;;;5011652;28;20061;-67
2022/12/01 07:01:35;;;;;;;29.65;17.20;;;;;;;;;;5012155;28;20049;-66
2022/12/01 07:04:02;;;;;;;31.13;17.15;;;;;;;;;;5012413;28;20054;-67
2022/12/01 07:06:29;;;;;;;28.52;17.25;;;;;;;;;;4995156;28;20096;-66
2022/12/01 07:08:56;;;;;;;30.60;17.25;;;;;;;;;;5011858;28;20135;-66
2022/12/01 07:11:23;;;;;;;30.90;18.10;;;;;;;;;;5001529;28;20078;-66
2022/12/01 07:13:53;;;;;;;28.63;16.98;;;;;;;;;;5010105;28;20049;-66
2022/12/01 07:16:21;;;;;;;33.05;17.73;;;;;;;;;;5009966;28;20081;-67
2022/12/01 07:18:47;;;;;;;28.92;17.20;;;;;;;;;;5009335;28;20057;-67
2022/12/01 07:21:14;;;;;;;28.20;16.33;;;;;;;;;;5000880;28;20050;-66
2022/12/01 07:23:41;;;;;;;26.02;16.35;;;;;;;;;;4990007;28;20092;-66
2022/12/01 07:26:12;;;;;;;30.00;18.25;;;;;;;;;;4990425;28;20509;-67
2022/12/01 07:28:39;;;;;;;28.40;17.63;;;;;;;;;;4972374;28;20097;-65
2022/12/01 07:31:14;;;;;;;30.52;18.80;;;;;;;;;;4996805;28;20497;-67
2022/12/01 07:33:41;;;;;;;30.95;17.00;;;;;;;;;;5009940;28;20050;-67
2022/12/01 07:36:08;;;;;;;30.95;18.63;;;;;;;;;;5007379;28;20552;-67
2022/12/01 07:38:35;;;;;;;30.92;17.88;;;;;;;;;;4996699;28;20050;-67
2022/12/01 07:41:06;;;;;;;30.73;17.20;;;;;;;;;;4989931;28;20054;-66
2022/12/01 07:43:33;;;;;;;34.38;17.48;;;;;;;;;;5009788;28;20145;-66
2022/12/01 07:46:13;;;;;;;28.60;17.05;;;;;;;;;;5021023;28;20084;-66
2022/12/01 07:48:47;;;;;;;28.80;16.70;;;;;;;;;;5026867;28;20064;-65
2022/12/01 07:51:15;;;;;;;29.30;16.88;;;;;;;;;;5009423;28;20053;-67
2022/12/01 07:53:46;;;;;;;35.58;20.30;;;;;;;;;;5016366;28;20056;-67
2022/12/01 07:56:12;;;;;;;32.40;18.83;;;;;;;;;;5021103;28;20039;-66
2022/12/01 07:58:39;;;;;;;30.90;18.00;;;;;;;;;;4993574;28;20054;-66
2022/12/01 08:01:10;;;;;;;34.28;18.83;;;;;;;;;;4993818;28;20054;-66
2022/12/01 08:03:37;;;;;;;30.10;18.38;;;;;;;;;;4993335;28;20058;-66
2022/12/01 08:06:05;;;;;;;31.20;16.42;;;;;;;;;;4995999;28;20100;-64
2022/12/01 08:08:33;;;;;;;29.15;16.50;;;;;;;;;;4995339;28;20058;-64
2022/12/01 08:11:01;;;;;;;28.33;16.52;;;;;;;;;;4995910;28;20085;-65
2022/12/01 08:13:28;;;;;;;27.73;17.27;;;;;;;;;;4995819;28;20076;-64
2022/12/01 08:15:55;;;;;;;30.30;17.60;;;;;;;;;;5004115;28;20054;-66
2022/12/01 08:18:22;;;;;;;30.95;16.90;;;;;;;;;;4996650;28;20050;-66
2022/12/01 08:20:49;;;;;;;29.17;17.90;;;;;;;;;;5014627;28;20062;-65
2022/12/01 08:23:16;;;;;;;32.72;18.00;;;;;;;;;;5015148;28;20129;-65
2022/12/01 08:25:42;;;;;;;32.80;18.15;;;;;;;;;;5007770;28;20086;-65
2022/12/01 08:28:09;;;;;;;29.33;17.02;;;;;;;;;;4996804;28;20105;-65
2022/12/01 08:30:36;;;;;;;30.17;17.40;;;;;;;;;;5011106;28;20053;-66
2022/12/01 08:33:02;;;;;;;28.50;16.67;;;;;;;;;;5013051;28;20104;-65
2022/12/01 08:35:29;;;;;;;26.00;15.52;;;;;;;;;;5016638;28;20050;-65
2022/12/01 08:37:55;;;;;;;27.05;16.95;;;;;;;;;;5010325;28;20054;-64
2022/12/01 08:40:22;;;;;;;26.70;15.15;;;;;;;;;;5013928;28;20168;-65
2022/12/01 08:42:50;;;;;;;24.75;15.57;;;;;;;;;;5010322;28;20052;-64
2022/12/01 08:45:18;;;;;;;26.50;15.18;;;;;;;;;;5012380;28;20049;-65
2022/12/01 08:47:44;;;;;;;25.95;16.17;;;;;;;;;;5011111;28;20050;-65
2022/12/01 08:50:11;;;;;;;28.05;16.40;;;;;;;;;;5012437;28;20085;-64
2022/12/01 08:52:37;;;;;;;26.13;16.92;;;;;;;;;;5012939;28;20508;-65
2022/12/01 08:55:05;;;;;;;30.60;17.17;;;;;;;;;;5012378;28;20096;-64
2022/12/01 08:57:31;;;;;;;25.65;15.63;;;;;;;;;;5011545;28;20124;-64
2022/12/01 08:59:58;;;;;;;28.23;17.60;;;;;;;;;;5005667;28;20501;-64
2022/12/01 09:02:25;;;;;;;27.73;17.17;;;;;;;;;;5003492;28;20042;-66
2022/12/01 09:04:51;;;;;;;26.95;15.80;;;;;;;;;;4998576;28;20048;-65
2022/12/01 09:07:19;;;;;;;30.58;16.60;;;;;;;;;;5000649;28;20185;-67
2022/12/01 09:09:51;;;;;;;27.05;15.23;;;;;;;;;;5003809;28;20061;-66
2022/12/01 09:12:18;;;;;;;28.83;16.77;;;;;;;;;;5004332;28;20129;-67
2022/12/01 09:14:47;;;;;;;31.05;17.67;;;;;;;;;;5012132;28;20053;-65
2022/12/01 09:17:15;;;;;;;25.38;16.00;;;;;;;;;;5012149;28;20100;-65
2022/12/01 09:19:42;;;;;;;26.08;16.40;;;;;;;;;;5005450;28;20136;-67
2022/12/01 09:22:09;;;;;;;28.13;16.30;;;;;;;;;;5005425;28;20125;-67
2022/12/01 09:24:36;;;;;;;27.45;15.60;;;;;;;;;;5005272;28;20090;-66
2022/12/01 09:27:04;;;;;;;28.00;17.40;;;;;;;;;;5008090;28;20112;-66
2022/12/01 09:29:31;;;;;;;27.13;15.30;;;;;;;;;;5008528;28;20057;-66
2022/12/01 09:31:58;;;;;;;29.88;17.23;;;;;;;;;;5008492;28;20057;-67
2022/12/01 09:34:25;;;;;;;29.23;16.30;;;;;;;;;;5003956;28;20050;-65
2022/12/01 09:36:55;;;;;;;27.42;16.05;;;;;;;;;;5010932;28;20485;-68
2022/12/01 09:39:22;;;;;;;28.10;16.35;;;;;;;;;;5009286;28;20095;-72
2022/12/01 09:42:01;;;;;;;31.33;16.88;;;;;;;;;;4992597;28;20549;-68
2022/12/01 09:44:53;;;;;;;26.83;16.38;;;;;;;;;;5008258;28;20054;-67
2022/12/01 09:47:24;;;;;;;26.38;16.02;;;;;;;;;;4993540;28;20077;-67
2022/12/01 09:50:05;;;;;;;25.35;14.70;;;;;;;;;;5006121;28;20049;-66
2022/12/01 09:52:58;;;;;;;28.48;16.33;;;;;;;;;;5006735;28;20049;-66
2022/12/01 09:55:25;;;;;;;28.05;14.48;;;;;;;;;;5007222;28;20457;-66
2022/12/01 09:57:54;;;;;;;26.25;15.57;;;;;;;;;;4991930;28;20431;-65
2022/12/01 10:00:26;;;;;;;25.92;15.70;;;;;;;;;;4992670;28;20045;-65
2022/12/01 10:02:56;;;;;;;25.33;15.15;;;;;;;;;;4990939;28;20084;-66
2022/12/01 10:05:25;;;;;;;24.27;15.57;;;;;;;;;;5008454;28;20540;-65
2022/12/01 10:07:59;;;;;;;25.95;15.93;;;;;;;;;;5009990;28;20046;-65
2022/12/01 10:10:48;;;;;;;25.33;15.40;;;;;;;;;;4993048;28;20116;-66
2022/12/01 10:13:20;;;;;;;24.02;15.32;;;;;;;;;;4982476;28;20133;-66
2022/12/01 10:16:06;;;;;;;;;;;;;;;;;;4991050;28;20496;-65
2022/12/01 10:18:59;;;;;;;23.63;14.63;;;;;;;;;;5009449;28;19925;-68
2022/12/01 10:21:53;;;;;;;20.80;13.63;;;;;;;;;;4994881;28;20068;-66
2022/12/01 10:24:20;;;;;;;24.40;15.00;;;;;;;;;;5009936;28;20084;-66
2022/12/01 10:26:56;;;;;;;26.23;16.50;;;;;;;;;;5009999;28;20060;-66
2022/12/01 10:29:33;;;;;;;24.52;16.27;;;;;;;;;;4990286;28;20050;-67
2022/12/01 10:32:04;;;;;;;27.88;17.50;;;;;;;;;;4990335;28;20050;-67
2022/12/01 10:34:36;;;;;;;25.10;16.52;;;;;;;;;;4992477;28;20042;-68
2022/12/01 10:37:03;;;;;;;25.42;16.05;;;;;;;;;;4991645;28;20305;-67
2022/12/01 10:39:32;;;;;;;24.30;15.65;;;;;;;;;;4990730;28;20100;-68
2022/12/01 10:42:09;;;;;;;27.77;17.65;;;;;;;;;;5008804;28;20046;-68
2022/12/01 10:44:36;;;;;;;31.80;18.67;;;;;;;;;;4969985;28;20417;-68
2022/12/01 10:47:02;;;;;;;28.13;17.35;;;;;;;;;;4989820;28;20100;-69
2022/12/01 10:49:39;;;;;;;25.35;15.25;;;;;;;;;;4993275;28;20053;-69
2022/12/01 10:52:06;;;;;;;27.98;16.67;;;;;;;;;;5006709;28;20041;-69
2022/12/01 10:54:37;;;;;;;25.40;15.88;;;;;;;;;;5009499;28;20137;-70
2022/12/01 10:57:06;;;;;;;28.85;17.42;;;;;;;;;;5006926;28;20046;-69
2022/12/01 10:59:40;;;;;;;24.20;15.52;;;;;;;;;;4991715;28;20061;-72
2022/12/01 11:02:14;;;;;;;32.38;16.35;;;;;;;;;;5007599;28;20481;-66
2022/12/01 11:04:53;;;;;;;24.73;15.73;;;;;;;;;;4990781;28;20539;-67
2022/12/01 11:07:34;;;;;;;25.88;15.05;;;;;;;;;;4991567;28;20401;-67
2022/12/01 11:10:18;;;;;;;22.95;14.75;;;;;;;;;;4973584;28;20054;-68
2022/12/01 11:13:02;;;;;;;26.23;15.23;;;;;;;;;;4993550;28;20057;-67
2022/12/01 11:15:32;;;;;;;;;;;;;;;;;;4989712;28;20615;-66
2022/12/01 11:18:19;;;;;;;32.50;16.40;;;;;;;;;;4974706;28;19926;-66
2022/12/01 11:20:47;;;;;;;25.67;15.63;;;;;;;;;;5007454;28;20132;-66
2022/12/01 11:23:17;;;;;;;25.98;15.07;;;;;;;;;;5009198;28;20045;-67
2022/12/01 11:26:14;;;;;;;26.10;15.35;;;;;;;;;;5009294;28;20050;-67
2022/12/01 11:28:50;;;;;;;28.27;15.13;;;;;;;;;;4993509;28;20054;-69
2022/12/01 11:31:18;;;;;;;24.67;15.40;;;;;;;;;;4989920;28;20061;-65
2022/12/01 11:33:54;;;;;;;24.08;15.45;;;;;;;;;;4975591;28;20058;-65
2022/12/01 11:36:26;;;;;;;22.30;14.30;;;;;;;;;;4991844;28;20420;-68
2022/12/01 11:38:59;;;;;;;23.48;15.07;;;;;;;;;;4991230;28;20409;-69
2022/12/01 11:41:36;;;;;;;21.40;13.82;;;;;;;;;;4991069;28;20060;-67
2022/12/01 11:44:05;;;;;;;24.35;15.00;;;;;;;;;;5008762;28;20057;-65
2022/12/01 11:46:52;;;;;;;24.50;15.25;;;;;;;;;;5007156;28;20455;-66
2022/12/01 11:49:41;;;;;;;24.85;15.32;;;;;;;;;;4990799;28;20149;-65
2022/12/01 11:52:35;;;;;;;25.15;16.48;;;;;;;;;;5006525;28;20048;-65
2022/12/01 11:55:11;;;;;;;26.55;15.85;;;;;;;;;;5007052;28;20057;-66
2022/12/01 11:57:42;;;;;;;25.42;15.30;;;;;;;;;;5008636;28;20050;-65
2022/12/01 12:00:16;;;;;;;25.05;15.60;;;;;;;;;;5004606;28;20542;-66
2022/12/01 12:03:05;;;;;;;24.08;14.13;;;;;;;;;;5005804;28;20065;-66
2022/12/01 12:05:57;;;;;;;25.00;15.45;;;;;;;;;;5005294;28;20050;-66
2022/12/01 12:09:06;;;;;;;25.15;15.23;;;;;;;;;;4990916;28;20054;-65
2022/12/01 12:11:49;;;;;;;29.73;16.23;;;;;;;;;;5004160;28;20053;-65
2022/12/01 12:14:18;;;;;;;22.33;13.43;;;;;;;;;;5007028;28;20508;-68
2022/12/01 12:17:13;;;;;;;23.35;13.75;;;;;;;;;;5007874;28;20087;-66
2022/12/01 12:20:04;;;;;;;23.42;14.57;;;;;;;;;;4995441;28;20120;-68
2022/12/01 12:22:52;;;;;;;;;;;;;;;;;;5006777;28;20057;-68
2022/12/01 12:26:01;;;;;;;23.23;14.32;;;;;;;;;;5004400;28;19921;-69
2022/12/01 12:28:58;;;;;;;21.42;13.40;;;;;;;;;;5006870;28;20041;-68
2022/12/01 12:31:51;;;;;;;20.52;12.70;;;;;;;;;;4975009;28;20054;-69
2022/12/01 12:34:36;;;;;;;22.52;13.95;;;;;;;;;;5007348;28;20050;-68
2022/12/01 12:37:28;;;;;;;20.70;13.73;;;;;;;;;;4989322;28;20096;-70
2022/12/01 12:40:23;;;;;;;19.60;13.25;;;;;;;;;;4984895;28;20088;-69
2022/12/01 12:43:08;;;;;;;21.33;14.38;;;;;;;;;;5008346;28;20053;-69
2022/12/01 12:46:06;;;;;;;22.92;14.13;;;;;;;;;;5011124;28;20056;-69
2022/12/01 12:48:48;;;;;;;25.42;13.90;;;;;;;;;;4980698;28;20054;-68
2022/12/01 12:51:44;;;;;;;21.50;13.68;;;;;;;;;;5007704;28;20050;-68
2022/12/01 12:54:11;;;;;;;22.60;13.90;;;;;;;;;;4971195;28;20054;-67
2022/12/01 12:56:42;;;;;;;24.63;14.30;;;;;;;;;;4991503;28;20085;-69
2022/12/01 12:59:28;;;;;;;22.60;13.40;;;;;;;;;;4958770;28;20062;-68
2022/12/01 13:02:16;;;;;;;21.15;12.95;;;;;;;;;;4986023;28;20050;-66
2022/12/01 13:05:04;;;;;;;22.58;13.60;;;;;;;;;;4988786;28;20056;-67
2022/12/01 13:07:42;;;;;;;21.38;13.52;;;;;;;;;;4991321;28;20054;-66
2022/12/01 13:10:22;;;;;;;30.80;16.88;;;;;;;;;;4989298;28;20145;-67
2022/12/01 13:13:08;;;;;;;36.42;19.10;;;;;;;;;;4987642;28;20061;-67
2022/12/01 13:15:35;;;;;;;34.58;19.55;;;;;;;;;;4974239;28;20099;-66
2022/12/01 13:18:12;;;;;;;27.42;15.98;;;;;;;;;;4989630;28;20050;-65
2022/12/01 13:20:39;;;;;;;20.33;13.32;;;;;;;;;;4989767;28;20054;-69
2022/12/01 13:23:08;;;;;;;23.80;14.40;;;;;;;;;;4972235;28;20054;-69
2022/12/01 13:25:39;;;;;;;21.85;13.98;;;;;;;;;;4973585;28;20046;-71
2022/12/01 13:28:13;;;;;;;23.65;15.05;;;;;;;;;;4959290;28;20532;-69
2022/12/01 13:30:40;;;;;;;26.27;15.95;;;;;;;;;;4990555;28;20062;-69
2022/12/01 13:33:13;;;;;;;25.13;15.85;;;;;;;;;;4973399;28;20573;-70
2022/12/01 13:35:42;;;;;;;;;;;;;;;;;;4972551;28;20120;-69
2022/12/01 13:38:29;;;;;;;23.05;13.50;;;;;;;;;;4990190;28;19931;-72
2022/12/01 13:41:23;;;;;;;22.17;14.27;;;;;;;;;;4985701;28;20047;-72
2022/12/01 13:43:57;;;;;;;23.35;13.70;;;;;;;;;;4987500;28;20061;-71
2022/12/01 13:46:28;;;;;;;26.42;15.57;;;;;;;;;;4989714;28;20054;-72
2022/12/01 13:48:58;;;;;;;24.25;13.75;;;;;;;;;;4990119;28;20133;-68
2022/12/01 13:51:25;;;;;;;23.70;12.88;;;;;;;;;;4985712;28;20053;-70
2022/12/01 13:54:22;;;;;;;24.73;15.18;;;;;;;;;;4989286;28;20054;-65
2022/12/01 13:56:59;;;;;;;28.15;14.63;;;;;;;;;;4988056;28;20497;-66
2022/12/01 13:59:42;;;;;;;24.02;13.95;;;;;;;;;;4972757;28;20054;-66
2022/12/01 14:02:19;;;;;;;26.23;14.10;;;;;;;;;;4989026;28;20132;-68
2022/12/01 14:04:46;;;;;;;25.15;14.57;;;;;;;;;;4988260;28;20066;-73
2022/12/01 14:07:20;;;;;;;24.13;14.25;;;;;;;;;;4990164;28;20054;-65
2022/12/01 14:09:48;;;;;;;;;;;;;;;;;;4969518;28;20050;-66
2022/12/01 14:12:36;;;;;;;25.52;14.05;;;;;;;;;;4991016;28;19926;-65
2022/12/01 14:15:20;;;;;;;24.13;13.82;;;;;;;;;;4983331;28;20088;-71
2022/12/01 14:17:47;;;;;;;22.25;15.02;;;;;;;;;;4973082;28;20055;-70
2022/12/01 14:20:15;;;;;;;21.73;13.90;;;;;;;;;;4980155;28;20096;-70
2022/12/01 14:22:44;;;;;;;23.50;14.52;;;;;;;;;;4989455;28;20109;-69
2022/12/01 14:25:20;;;;;;;22.25;15.13;;;;;;;;;;4973015;28;20058;-70
2022/12/01 14:27:55;;;;;;;25.52;14.68;;;;;;;;;;4990405;28;20093;-70
2022/12/01 14:30:46;;;;;;;26.70;15.25;;;;;;;;;;4972415;28;20193;-69
2022/12/01 14:33:38;;;;;;;25.15;15.38;;;;;;;;;;4988366;28;20096;-69
2022/12/01 14:36:23;;;;;;;23.10;14.35;;;;;;;;;;4988338;28;20051;-69
2022/12/01 14:38:58;;;;;;;23.17;14.43;;;;;;;;;;4986132;28;20046;-70
2022/12/01 14:41:26;;;;;;;25.55;15.25;;;;;;;;;;4987958;28;20050;-70
2022/12/01 14:44:02;;;;;;;27.02;15.75;;;;;;;;;;4972432;28;20540;-70
2022/12/01 14:46:49;;;;;;;27.05;15.48;;;;;;;;;;4973289;28;20129;-70
2022/12/01 14:49:28;;;;;;;24.95;14.90;;;;;;;;;;4989376;28;20097;-70
2022/12/01 14:52:03;;;;;;;26.50;15.98;;;;;;;;;;4972654;28;20492;-70
2022/12/01 14:54:48;;;;;;;25.55;15.15;;;;;;;;;;4987808;28;20128;-70